Mare Di Venezia — ICCN — position and weather

sailwx.info

Track history (hours):
 
Tides and Currents Weather Stations Pressure Air Temp Water Temp Dewpoint Dewpoint Depression Visibility Wind Speed Wind Dir Waves Ship Positions

Mare Di Venezia

Last reported at 2017-Dec-26 20:16 UTC. Time now 2018-Jan-22 20:31 UTC.
Position N 35°39' W 025°15'.
Warning: this ship's position is 27 days out of date.

Length 183 m; draft 10 m.

Type: Tanker. MMSI: 247242400.

Date/timePositionNaut miles runAvg speedWind from/ knotsBaromVisibWave heightAir tempDewpointWater temp
2017-Dec-26 20:16N 35°39' W 025°15'1613.5
2017-Dec-26 19:06N 35°41' W 024°55'2 8.7
2017-Dec-26 18:53N 35°41' W 024°53'512.5
2017-Dec-26 18:30N 35°41' W 024°47'2312.5
2017-Dec-26 16:42N 35°43' W 024°20'712.3
2017-Dec-26 16:06N 35°44' W 024°10'112.5
2017-Dec-26 16:00N 35°44' W 024°09'2212.3
2017-Dec-26 14:11N 35°46' W 023°42'312.2
2017-Dec-26 13:56N 35°46' W 023°38'912.3
2017-Dec-26 13:12N 35°47' W 023°27'312.0
2017-Dec-26 12:58N 35°47' W 023°23'511.7
2017-Dec-26 12:30N 35°47' W 023°17'611.8
2017-Dec-26 12:00N 35°48' W 023°09'  
2017-Dec-23 15:16N 35°58' W 005°38'411.9
2017-Dec-23 14:56N 35°59' W 005°33'711.0
2017-Dec-23 14:20N 36°01' W 005°25'411.2
2017-Dec-23 14:00N 36°04' W 005°23'4 0.5
2017-Dec-23 06:43N 36°08' W 005°22'0 0.0
2017-Dec-23 06:25N 36°08' W 005°22'0 0.0
2017-Dec-23 03:08N 36°08' W 005°22'0 0.1
2017-Dec-23 02:56N 36°08' W 005°22'0 0.3
2017-Dec-23 02:29N 36°08' W 005°22'0 0.7
2017-Dec-23 01:56N 36°08' W 005°22'2 5.6
2017-Dec-23 01:30N 36°05' W 005°21'2 4.8
2017-Dec-23 01:00N 36°05' W 005°18'0 0.3
2017-Dec-23 00:31N 36°05' W 005°18'1 1.0
2017-Dec-23 00:00N 36°04' W 005°18'1 1.5
2017-Dec-22 23:30N 36°04' W 005°18'1 1.2
2017-Dec-22 23:00N 36°03' W 005°18'3 6.0
2017-Dec-22 22:30N 36°03' W 005°14'0 0.7
2017-Dec-22 22:00N 36°04' W 005°14'0 0.5
2017-Dec-22 21:30N 36°04' W 005°14'0 0.3
2017-Dec-22 21:00N 36°04' W 005°14'0 0.4
2017-Dec-22 20:31N 36°04' W 005°15'0 0.6
2017-Dec-22 20:00N 36°04' W 005°15'0 0.8
2017-Dec-22 19:31N 36°04' W 005°15'1 0.9
2017-Dec-22 18:50N 36°04' W 005°16'0 0.9
2017-Dec-22 18:30N 36°04' W 005°17'1 1.1
2017-Dec-22 18:01N 36°04' W 005°17'1 1.2
2017-Dec-22 17:30N 36°04' W 005°18'1 1.3
2017-Dec-22 17:00N 36°04' W 005°19'1 1.9
2017-Dec-22 16:30N 36°04' W 005°20'6 0.1
2017-Dec-20 12:56N 35°59' W 005°24'  
2017-Dec-18 07:59N 28°48' W 014°42'611.7
2017-Dec-18 07:29N 28°43' W 014°47'611.9
2017-Dec-18 07:01N 28°39' W 014°51'611.8
2017-Dec-18 06:31N 28°34' W 014°55'611.8
2017-Dec-18 06:01N 28°30' W 015°00'611.8
2017-Dec-18 05:31N 28°26' W 015°05'611.8
2017-Dec-18 05:01N 28°22' W 015°10'612.0
2017-Dec-18 04:31N 28°17' W 015°14'612.3
2017-Dec-18 04:00N 28°13' W 015°19'510.4
2017-Dec-18 03:30N 28°09' W 015°23'1 1.7
2017-Dec-18 02:58N 28°09' W 015°24'0 0.1
2017-Dec-18 02:25N 28°09' W 015°24'0 0.1
2017-Dec-18 01:52N 28°09' W 015°24'0 0.0
2017-Dec-18 01:28N 28°09' W 015°24'0 0.1
2017-Dec-18 01:00N 28°09' W 015°24'0 0.0
2017-Dec-18 00:27N 28°09' W 015°24'0 0.1
2017-Dec-17 23:54N 28°09' W 015°24'0 0.0
2017-Dec-17 23:30N 28°09' W 015°24'0 0.2
2017-Dec-17 23:00N 28°09' W 015°24'2 3.4
2017-Dec-17 22:30N 28°07' W 015°23'4 7.8
2017-Dec-17 22:00N 28°11' W 015°20'1 2.1
2017-Dec-17 21:30N 28°11' W 015°19'1 2.6
2017-Dec-17 21:00N 28°09' W 015°19'1 2.0
2017-Dec-17 20:30N 28°08' W 015°19'1 2.0
2017-Dec-17 20:00N 28°07' W 015°19'3 5.4
2017-Dec-17 19:30N 28°05' W 015°21'1 2.6
2017-Dec-17 19:00N 28°06' W 015°22'1 1.3
2017-Dec-17 18:30N 28°07' W 015°22'5 9.0
2017-Dec-17 18:00N 28°02' W 015°21'2 3.4
2017-Dec-17 17:30N 28°04' W 015°21'1 2.6
2017-Dec-17 17:00N 28°05' W 015°21'1 2.6
2017-Dec-17 16:30N 28°07' W 015°21'1 1.2
2017-Dec-17 16:00N 28°07' W 015°21'1 1.7
2017-Dec-17 15:30N 28°06' W 015°20'2 3.4
2017-Dec-17 15:00N 28°05' W 015°19'3 5.1
2017-Dec-17 14:30N 28°03' W 015°18'5 9.5
2017-Dec-17 14:00N 27°58' W 015°16'510.7
2017-Dec-17 13:30N 27°53' W 015°15'510.3
2017-Dec-17 13:00N 27°48' W 015°16'510.9
2017-Dec-17 12:30N 27°44' W 015°19'  
Track history (hours):
 
Tides and Currents Weather Stations Pressure Air Temp Water Temp Dewpoint Dewpoint Depression Visibility Wind Speed Wind Dir Waves Ship Positions

Mare Di Venezia

Last reported at 2017-Dec-26 20:16 UTC. Time now 2018-Jan-22 20:31 UTC.
Position N 35°39' W 025°15'.
Warning: this ship's position is 27 days out of date.

Length 183 m; draft 10 m.

Type: Tanker. MMSI: 247242400.

Date/timePositionNaut miles runAvg speedWind from/ knotsBaromVisibWave heightAir tempDewpointWater temp
2017-Dec-26 20:16N 35°39' W 025°15'1613.5
2017-Dec-26 19:06N 35°41' W 024°55'2 8.7
2017-Dec-26 18:53N 35°41' W 024°53'512.5
2017-Dec-26 18:30N 35°41' W 024°47'2312.5
2017-Dec-26 16:42N 35°43' W 024°20'712.3
2017-Dec-26 16:06N 35°44' W 024°10'112.5
2017-Dec-26 16:00N 35°44' W 024°09'2212.3
2017-Dec-26 14:11N 35°46' W 023°42'312.2
2017-Dec-26 13:56N 35°46' W 023°38'912.3
2017-Dec-26 13:12N 35°47' W 023°27'312.0
2017-Dec-26 12:58N 35°47' W 023°23'511.7
2017-Dec-26 12:30N 35°47' W 023°17'611.8
2017-Dec-26 12:00N 35°48' W 023°09'  
2017-Dec-23 15:16N 35°58' W 005°38'411.9
2017-Dec-23 14:56N 35°59' W 005°33'711.0
2017-Dec-23 14:20N 36°01' W 005°25'411.2
2017-Dec-23 14:00N 36°04' W 005°23'4 0.5
2017-Dec-23 06:43N 36°08' W 005°22'0 0.0
2017-Dec-23 06:25N 36°08' W 005°22'0 0.0
2017-Dec-23 03:08N 36°08' W 005°22'0 0.1
2017-Dec-23 02:56N 36°08' W 005°22'0 0.3
2017-Dec-23 02:29N 36°08' W 005°22'0 0.7
2017-Dec-23 01:56N 36°08' W 005°22'2 5.6
2017-Dec-23 01:30N 36°05' W 005°21'2 4.8
2017-Dec-23 01:00N 36°05' W 005°18'0 0.3
2017-Dec-23 00:31N 36°05' W 005°18'1 1.0
2017-Dec-23 00:00N 36°04' W 005°18'1 1.5
2017-Dec-22 23:30N 36°04' W 005°18'1 1.2
2017-Dec-22 23:00N 36°03' W 005°18'3 6.0
2017-Dec-22 22:30N 36°03' W 005°14'0 0.7
2017-Dec-22 22:00N 36°04' W 005°14'0 0.5
2017-Dec-22 21:30N 36°04' W 005°14'0 0.3
2017-Dec-22 21:00N 36°04' W 005°14'0 0.4
2017-Dec-22 20:31N 36°04' W 005°15'0 0.6
2017-Dec-22 20:00N 36°04' W 005°15'0 0.8
2017-Dec-22 19:31N 36°04' W 005°15'1 0.9
2017-Dec-22 18:50N 36°04' W 005°16'0 0.9
2017-Dec-22 18:30N 36°04' W 005°17'1 1.1
2017-Dec-22 18:01N 36°04' W 005°17'1 1.2
2017-Dec-22 17:30N 36°04' W 005°18'1 1.3
2017-Dec-22 17:00N 36°04' W 005°19'1 1.9
2017-Dec-22 16:30N 36°04' W 005°20'6 0.1
2017-Dec-20 12:56N 35°59' W 005°24'  
2017-Dec-18 07:59N 28°48' W 014°42'611.7
2017-Dec-18 07:29N 28°43' W 014°47'611.9
2017-Dec-18 07:01N 28°39' W 014°51'611.8
2017-Dec-18 06:31N 28°34' W 014°55'611.8
2017-Dec-18 06:01N 28°30' W 015°00'611.8
2017-Dec-18 05:31N 28°26' W 015°05'611.8
2017-Dec-18 05:01N 28°22' W 015°10'612.0
2017-Dec-18 04:31N 28°17' W 015°14'612.3
2017-Dec-18 04:00N 28°13' W 015°19'510.4
2017-Dec-18 03:30N 28°09' W 015°23'1 1.7
2017-Dec-18 02:58N 28°09' W 015°24'0 0.1
2017-Dec-18 02:25N 28°09' W 015°24'0 0.1
2017-Dec-18 01:52N 28°09' W 015°24'0 0.0
2017-Dec-18 01:28N 28°09' W 015°24'0 0.1
2017-Dec-18 01:00N 28°09' W 015°24'0 0.0
2017-Dec-18 00:27N 28°09' W 015°24'0 0.1
2017-Dec-17 23:54N 28°09' W 015°24'0 0.0
2017-Dec-17 23:30N 28°09' W 015°24'0 0.2
2017-Dec-17 23:00N 28°09' W 015°24'2 3.4
2017-Dec-17 22:30N 28°07' W 015°23'4 7.8
2017-Dec-17 22:00N 28°11' W 015°20'1 2.1
2017-Dec-17 21:30N 28°11' W 015°19'1 2.6
2017-Dec-17 21:00N 28°09' W 015°19'1 2.0
2017-Dec-17 20:30N 28°08' W 015°19'1 2.0
2017-Dec-17 20:00N 28°07' W 015°19'3 5.4
2017-Dec-17 19:30N 28°05' W 015°21'1 2.6
2017-Dec-17 19:00N 28°06' W 015°22'1 1.3
2017-Dec-17 18:30N 28°07' W 015°22'5 9.0
2017-Dec-17 18:00N 28°02' W 015°21'2 3.4
2017-Dec-17 17:30N 28°04' W 015°21'1 2.6
2017-Dec-17 17:00N 28°05' W 015°21'1 2.6
2017-Dec-17 16:30N 28°07' W 015°21'1 1.2
2017-Dec-17 16:00N 28°07' W 015°21'1 1.7
2017-Dec-17 15:30N 28°06' W 015°20'2 3.4
2017-Dec-17 15:00N 28°05' W 015°19'3 5.1
2017-Dec-17 14:30N 28°03' W 015°18'5 9.5
2017-Dec-17 14:00N 27°58' W 015°16'510.7
2017-Dec-17 13:30N 27°53' W 015°15'510.3
2017-Dec-17 13:00N 27°48' W 015°16'510.9
2017-Dec-17 12:30N 27°44' W 015°19'  

Dump ship's entire track history